Time;durP1;ratioP1;P1;durP2;ratioP2;P2;SDS_P1;SDS_P2;PMS_P1;PMS_P2;Temp;Humidity;BMP_temperature;BMP_pressure;BME280_temperature;BME280_humidity;BME280_pressure;Samples;Min_cycle;Max_cycle;Signal;HPM_P1;HPM_P2
2021/03/25 00:00:40;;;;;;;69.35;44.20;;;9.60;77.40;;;;;;5053598;28;20422;-83
2021/03/25 00:03:11;;;;;;;77.07;44.38;;;9.60;77.30;;;;;;5055172;28;20048;-83
2021/03/25 00:05:37;;;;;;;72.85;44.55;;;9.60;77.10;;;;;;5053240;28;20037;-83
2021/03/25 00:08:08;;;;;;;70.50;43.35;;;9.60;77.30;;;;;;5053826;28;20025;-82
2021/03/25 00:10:36;;;;;;;67.38;41.63;;;9.60;77.60;;;;;;5054749;28;20027;-81
2021/03/25 00:13:02;;;;;;;73.70;44.55;;;9.60;77.40;;;;;;5059620;28;20020;-82
2021/03/25 00:15:29;;;;;;;70.30;41.20;;;9.60;77.40;;;;;;5068076;28;20021;-82
2021/03/25 00:17:54;;;;;;;64.00;40.85;;;9.60;77.40;;;;;;5070158;28;20021;-83
2021/03/25 00:20:22;;;;;;;69.43;42.50;;;9.60;76.90;;;;;;5055307;28;20414;-81
2021/03/25 00:22:47;;;;;;;75.25;43.45;;;9.60;77.40;;;;;;5056288;28;20020;-82
2021/03/25 00:25:16;;;;;;;75.95;44.70;;;9.60;77.10;;;;;;5056945;28;20373;-81
2021/03/25 00:27:41;;;;;;;76.45;45.10;;;9.60;77.20;;;;;;5065328;28;20043;-81
2021/03/25 00:30:10;;;;;;;73.90;43.90;;;9.60;77.00;;;;;;5057580;28;20063;-82
2021/03/25 00:32:35;;;;;;;74.95;44.05;;;9.60;77.20;;;;;;5052806;28;20058;-82
2021/03/25 00:35:01;;;;;;;71.90;43.97;;;9.50;77.40;;;;;;5052449;28;20100;-83
2021/03/25 00:37:27;;;;;;;72.80;44.13;;;9.50;77.60;;;;;;5052700;28;20021;-81
2021/03/25 00:39:53;;;;;;;68.80;44.53;;;9.50;77.50;;;;;;5053682;28;20398;-82
2021/03/25 00:42:18;;;;;;;73.15;45.80;;;9.50;77.30;;;;;;5052536;28;20017;-82
2021/03/25 00:44:44;;;;;;;78.13;44.50;;;9.50;77.30;;;;;;5052102;28;20044;-82
2021/03/25 00:47:10;;;;;;;75.13;46.67;;;9.50;77.50;;;;;;5053680;28;20021;-82
2021/03/25 00:49:36;;;;;;;76.07;45.13;;;9.50;77.50;;;;;;5053354;28;20430;-81
2021/03/25 00:52:02;;;;;;;72.05;44.92;;;9.50;77.60;;;;;;5052107;28;20071;-81
2021/03/25 00:54:28;;;;;;;74.68;44.88;;;9.50;77.80;;;;;;5053930;28;20087;-82
2021/03/25 00:56:54;;;;;;;75.25;45.72;;;9.40;77.50;;;;;;5053232;28;20473;-82
2021/03/25 00:59:19;;;;;;;78.40;44.33;;;9.40;77.50;;;;;;5053253;28;20122;-82
2021/03/25 01:01:45;;;;;;;79.45;45.50;;;9.40;77.70;;;;;;5052313;28;20021;-82
2021/03/25 01:04:10;;;;;;;72.82;45.88;;;9.40;78.20;;;;;;5052975;28;20023;-82
2021/03/25 01:06:36;;;;;;;81.78;48.65;;;9.40;77.50;;;;;;5052157;28;20045;-81
2021/03/25 01:09:12;;;;;;;76.43;46.88;;;9.40;77.60;;;;;;5051964;28;20028;-82
2021/03/25 01:11:37;;;;;;;78.82;48.92;;;9.40;77.90;;;;;;5051987;28;20025;-81
2021/03/25 01:14:09;;;;;;;79.28;47.92;;;9.40;78.00;;;;;;5051787;28;20519;-82
2021/03/25 01:16:40;;;;;;;80.65;46.85;;;9.40;78.00;;;;;;5052200;28;20342;-83
2021/03/25 01:19:07;;;;;;;;;;;9.40;78.10;;;;;;5053014;28;20017;-82
2021/03/25 01:21:33;;;;;;;83.03;47.97;;;9.30;78.30;;;;;;5053649;28;20333;-82
2021/03/25 01:23:59;;;;;;;74.82;48.15;;;9.30;78.20;;;;;;5054956;28;20017;-80
2021/03/25 01:26:24;;;;;;;81.50;47.55;;;9.30;78.90;;;;;;5055183;28;20459;-80
2021/03/25 01:28:50;;;;;;;79.68;48.42;;;9.30;78.90;;;;;;5054151;28;20017;-82
2021/03/25 01:31:15;;;;;;;79.03;47.58;;;9.30;78.70;;;;;;5055222;28;20017;-83
2021/03/25 01:33:41;;;;;;;77.40;45.67;;;9.30;78.60;;;;;;5051776;28;20035;-83
2021/03/25 01:36:07;;;;;;;73.85;48.47;;;9.30;78.80;;;;;;5051062;28;20095;-83
2021/03/25 01:38:32;;;;;;;74.28;44.65;;;9.30;78.90;;;;;;5051769;28;20017;-84
2021/03/25 01:41:00;;;;;;;79.53;46.70;;;9.30;78.70;;;;;;5051576;28;20394;-84
2021/03/25 01:43:40;;;;;;;77.70;45.95;;;9.30;78.60;;;;;;5051675;28;20111;-85
2021/03/25 01:46:25;;;;;;;88.90;48.63;;;9.30;78.70;;;;;;5051380;28;20071;-83
2021/03/25 01:48:54;;;;;;;78.90;49.38;;;9.30;78.70;;;;;;5051545;28;20017;-83
2021/03/25 01:51:41;;;;;;;82.55;47.17;;;9.30;78.80;;;;;;5051600;28;20100;-83
2021/03/25 01:54:13;;;;;;;76.70;46.65;;;9.30;78.90;;;;;;5051137;28;20028;-83
2021/03/25 01:56:59;;;;;;;79.13;48.20;;;9.30;78.90;;;;;;5051491;28;20048;-83
2021/03/25 01:59:50;;;;;;;82.22;48.65;;;9.30;78.90;;;;;;5051252;28;20036;-83
2021/03/25 02:02:27;;;;;;;;;;;9.30;78.80;;;;;;5051642;28;20017;-82
2021/03/25 02:05:08;;;;;;;80.85;48.90;;;9.30;79.00;;;;;;5051365;28;19999;-83
2021/03/25 02:08:01;;;;;;;78.78;47.72;;;9.30;78.50;;;;;;5051127;28;20026;-82
2021/03/25 02:10:35;;;;;;;80.78;46.10;;;9.30;77.90;;;;;;5052534;28;20027;-82
2021/03/25 02:13:25;;;;;;;81.88;47.75;;;9.30;77.90;;;;;;5051016;28;20043;-82
2021/03/25 02:16:00;;;;;;;73.57;45.30;;;9.30;78.20;;;;;;5051324;28;20431;-82
2021/03/25 02:18:25;;;;;;;79.47;47.75;;;9.30;78.20;;;;;;5051221;28;20017;-81
2021/03/25 02:21:34;;;;;;;77.72;46.80;;;9.30;78.40;;;;;;5051246;28;20403;-82
2021/03/25 02:24:25;;;;;;;73.28;46.38;;;9.30;78.90;;;;;;5051045;28;20090;-82
2021/03/25 02:26:55;;;;;;;79.93;49.35;;;9.30;78.20;;;;;;5052526;28;20025;-81
2021/03/25 02:29:42;;;;;;;79.38;48.00;;;9.30;78.50;;;;;;5051326;28;20021;-81
2021/03/25 02:32:13;;;;;;;76.70;47.35;;;9.30;78.80;;;;;;5050909;28;20013;-82
2021/03/25 02:34:43;;;;;;;82.90;48.50;;;9.40;78.60;;;;;;5052262;28;20056;-83
2021/03/25 02:37:23;;;;;;;80.47;48.78;;;9.30;78.30;;;;;;5050856;28;20032;-82
2021/03/25 02:40:05;;;;;;;80.32;47.30;;;9.40;78.10;;;;;;5051020;28;20032;-82
2021/03/25 02:42:43;;;;;;;83.15;49.85;;;9.40;78.10;;;;;;5050964;28;20079;-83
2021/03/25 02:45:21;;;;;;;79.03;48.80;;;9.30;77.90;;;;;;5050749;28;20040;-82
2021/03/25 02:47:50;;;;;;;80.50;49.92;;;9.30;77.90;;;;;;5051232;28;20048;-82
2021/03/25 02:50:37;;;;;;;87.00;50.33;;;9.30;77.70;;;;;;5054629;28;20638;-82
2021/03/25 02:53:30;;;;;;;78.38;48.60;;;9.30;77.70;;;;;;5054543;28;20031;-82
2021/03/25 02:56:08;;;;;;;86.13;50.60;;;9.30;77.90;;;;;;5054549;28;20476;-83
2021/03/25 02:58:37;;;;;;;78.32;49.30;;;9.40;77.90;;;;;;5054863;28;20017;-83
2021/03/25 03:01:10;;;;;;;78.00;50.88;;;9.30;77.80;;;;;;5054618;28;20021;-83
2021/03/25 03:03:44;;;;;;;82.28;50.13;;;9.30;77.90;;;;;;5058100;28;20020;-80
2021/03/25 03:06:23;;;;;;;88.90;52.05;;;9.30;78.10;;;;;;5064885;28;20075;-81
2021/03/25 03:08:51;;;;;;;89.35;55.38;;;9.30;77.90;;;;;;5073266;28;20013;-82
2021/03/25 03:11:21;;;;;;;85.07;50.10;;;9.30;78.20;;;;;;5059418;28;20563;-83
2021/03/25 03:13:53;;;;;;;81.90;51.03;;;9.30;78.20;;;;;;5054428;28;20108;-83
2021/03/25 03:16:39;;;;;;;80.88;50.10;;;9.30;77.80;;;;;;5056807;28;20070;-82
2021/03/25 03:19:11;;;;;;;83.28;52.95;;;9.30;77.80;;;;;;5059820;28;20017;-82
2021/03/25 03:21:45;;;;;;;82.05;49.50;;;9.30;77.70;;;;;;5069309;28;20013;-82
2021/03/25 03:24:15;;;;;;;85.68;52.65;;;9.30;77.70;;;;;;5067001;28;20394;-81
2021/03/25 03:27:08;;;;;;;82.95;51.10;;;9.30;77.80;;;;;;5053777;28;20060;-82
2021/03/25 03:29:35;;;;;;;83.70;52.22;;;9.30;77.90;;;;;;5051262;28;20474;-81
2021/03/25 03:32:08;;;;;;;80.70;49.33;;;9.30;78.00;;;;;;5053642;28;20028;-81
2021/03/25 03:34:38;;;;;;;86.10;50.90;;;9.30;77.90;;;;;;5053912;28;20024;-82
2021/03/25 03:37:10;;;;;;;83.38;50.25;;;9.30;78.10;;;;;;5053723;28;20032;-83
2021/03/25 03:39:37;;;;;;;81.63;50.90;;;9.30;78.50;;;;;;5053650;28;20013;-82
2021/03/25 03:42:15;;;;;;;86.68;50.30;;;9.40;78.50;;;;;;5053687;28;20025;-83
2021/03/25 03:44:49;;;;;;;86.22;51.72;;;9.30;78.60;;;;;;5053624;28;20123;-82
2021/03/25 03:47:18;;;;;;;84.65;52.13;;;9.30;78.60;;;;;;5053454;28;20029;-82
2021/03/25 03:49:50;;;;;;;95.93;56.72;;;9.40;79.30;;;;;;5053642;28;20112;-82
2021/03/25 03:52:28;;;;;;;89.38;52.33;;;9.30;78.60;;;;;;5053272;28;20017;-82
2021/03/25 03:54:55;;;;;;;85.05;51.97;;;9.40;78.80;;;;;;5053441;28;20024;-82
2021/03/25 03:57:35;;;;;;;81.90;51.08;;;9.40;79.00;;;;;;5053315;28;20033;-82
2021/03/25 04:00:27;;;;;;;89.97;53.58;;;9.40;78.60;;;;;;5053079;28;20013;-82
2021/03/25 04:03:29;;;;;;;83.65;51.65;;;9.40;78.80;;;;;;5053411;28;20640;-82
2021/03/25 04:06:01;;;;;;;81.75;50.55;;;9.40;78.60;;;;;;5053017;28;20044;-83
2021/03/25 04:08:39;;;;;;;81.68;49.65;;;9.40;78.90;;;;;;5053340;28;20021;-83
2021/03/25 04:11:15;;;;;;;88.32;52.42;;;9.40;79.00;;;;;;5052866;28;20020;-82
2021/03/25 04:13:48;;;;;;;84.00;50.53;;;9.40;79.00;;;;;;5053117;28;20392;-81
2021/03/25 04:16:15;;;;;;;84.80;49.80;;;9.40;78.80;;;;;;5054161;28;20021;-81
2021/03/25 04:19:00;;;;;;;91.85;54.88;;;9.40;78.80;;;;;;5052976;28;20108;-82
2021/03/25 04:21:34;;;;;;;85.82;51.35;;;9.40;79.10;;;;;;5053056;28;20016;-82
2021/03/25 04:24:06;;;;;;;88.20;54.10;;;9.40;79.10;;;;;;5053078;28;20021;-82
2021/03/25 04:26:40;;;;;;;88.45;53.85;;;9.40;79.40;;;;;;5054049;28;20081;-82
2021/03/25 04:29:11;;;;;;;86.35;53.58;;;9.40;79.30;;;;;;5052830;28;20465;-83
2021/03/25 04:31:37;;;;;;;89.60;55.17;;;9.40;79.40;;;;;;5054652;28;20032;-83
2021/03/25 04:34:04;;;;;;;88.60;52.72;;;9.40;79.00;;;;;;5054240;28;20021;-83
2021/03/25 04:36:35;;;;;;;87.30;54.03;;;9.40;79.00;;;;;;5054512;28;20139;-83
2021/03/25 04:39:03;;;;;;;90.47;54.88;;;9.50;78.80;;;;;;5053164;28;20078;-83
2021/03/25 04:41:31;;;;;;;90.57;53.85;;;9.50;79.00;;;;;;5052759;28;20025;-83
2021/03/25 04:44:02;;;;;;;86.60;54.90;;;9.50;78.70;;;;;;5052801;28;20071;-82
2021/03/25 04:46:47;;;;;;;93.20;54.15;;;9.40;78.60;;;;;;5052203;28;20031;-83
2021/03/25 04:49:18;;;;;;;85.53;53.58;;;9.40;78.50;;;;;;5052296;28;20029;-82
2021/03/25 04:51:44;;;;;;;87.88;55.13;;;9.40;78.50;;;;;;5052567;28;20028;-83
2021/03/25 04:54:30;;;;;;;84.68;52.10;;;9.40;78.40;;;;;;5052341;28;20021;-83
2021/03/25 04:57:09;;;;;;;87.55;56.20;;;9.40;78.50;;;;;;5052529;28;20119;-82
2021/03/25 04:59:37;;;;;;;98.80;57.10;;;9.40;79.40;;;;;;5052414;28;20468;-82
2021/03/25 05:02:05;;;;;;;93.03;55.60;;;9.40;79.00;;;;;;5052589;28;20044;-82
2021/03/25 05:04:35;;;;;;;85.03;54.78;;;9.30;79.20;;;;;;5052271;28;20009;-82
2021/03/25 05:07:02;;;;;;;83.53;49.35;;;9.30;79.20;;;;;;5051713;28;20493;-83
2021/03/25 05:09:29;;;;;;;90.60;55.42;;;9.30;79.40;;;;;;5051796;28;20021;-82
2021/03/25 05:11:55;;;;;;;93.10;55.33;;;9.30;79.70;;;;;;5051407;28;20017;-82
2021/03/25 05:14:28;;;;;;;91.60;55.28;;;9.20;80.00;;;;;;5051486;28;20017;-82
2021/03/25 05:17:14;;;;;;;91.68;54.67;;;9.20;80.30;;;;;;5052131;28;20104;-82
2021/03/25 05:19:57;;;;;;;86.60;57.25;;;9.20;80.50;;;;;;5053370;28;20024;-81
2021/03/25 05:22:34;;;;;;;88.65;55.97;;;9.10;80.80;;;;;;5051707;28;20445;-82
2021/03/25 05:25:14;;;;;;;90.40;55.50;;;9.10;81.00;;;;;;5052681;28;20040;-82
2021/03/25 05:27:57;;;;;;;97.47;55.73;;;9.10;81.10;;;;;;5051827;28;20051;-83
2021/03/25 05:30:26;;;;;;;87.18;57.03;;;9.10;81.50;;;;;;5051825;28;20025;-82
2021/03/25 05:32:58;;;;;;;89.30;55.55;;;9.00;81.70;;;;;;5051826;28;20473;-82
2021/03/25 05:35:29;;;;;;;89.57;55.00;;;9.00;81.80;;;;;;5052111;28;20108;-83
2021/03/25 05:37:55;;;;;;;90.88;56.88;;;8.90;82.20;;;;;;5051759;28;20111;-82
2021/03/25 05:40:28;;;;;;;90.60;54.75;;;8.90;82.20;;;;;;5051118;28;20083;-81
2021/03/25 05:43:16;;;;;;;91.97;56.55;;;8.90;82.30;;;;;;5054507;28;20070;-82
2021/03/25 05:45:53;;;;;;;98.00;56.15;;;8.80;82.40;;;;;;5052964;28;20028;-82
2021/03/25 05:48:22;;;;;;;92.72;55.22;;;8.80;82.70;;;;;;5052571;28;20056;-83
2021/03/25 05:51:18;;;;;;;93.18;56.38;;;8.70;82.80;;;;;;5052093;28;20017;-83
2021/03/25 05:53:59;;;;;;;97.10;57.85;;;8.70;83.10;;;;;;5056787;28;20048;-83
2021/03/25 05:56:50;;;;;;;95.47;57.30;;;8.60;83.40;;;;;;5055467;28;20075;-84
2021/03/25 05:59:18;;;;;;;100.53;57.75;;;8.60;83.60;;;;;;5068499;28;20020;-83
2021/03/25 06:02:09;;;;;;;93.70;54.85;;;8.50;83.90;;;;;;5070474;28;20025;-83
2021/03/25 06:04:36;;;;;;;98.38;56.78;;;8.50;83.90;;;;;;5052026;28;20369;-83
2021/03/25 06:07:17;;;;;;;91.95;55.97;;;8.50;84.00;;;;;;5053120;28;20073;-83
2021/03/25 06:10:01;;;;;;;96.22;57.63;;;8.50;84.00;;;;;;5053743;28;20027;-83
2021/03/25 06:13:01;;;;;;;94.30;55.83;;;8.50;84.20;;;;;;5058905;28;20233;-82
2021/03/25 06:15:53;;;;;;;92.63;53.87;;;8.50;84.30;;;;;;5070339;28;20021;-82
2021/03/25 06:19:00;;;;;;;94.35;56.80;;;8.50;84.20;;;;;;5043502;28;20596;-83
2021/03/25 06:21:36;;;;;;;97.15;55.63;;;8.50;84.30;;;;;;5051343;28;20107;-82
2021/03/25 06:24:07;;;;;;;107.45;60.88;;;8.50;84.30;;;;;;5056447;28;20031;-82
2021/03/25 06:27:08;;;;;;;100.85;55.78;;;8.50;84.40;;;;;;5054670;28;20029;-82
2021/03/25 06:29:37;;;;;;;99.22;56.97;;;8.50;84.40;;;;;;5054818;28;20031;-82
2021/03/25 06:32:19;;;;;;;96.85;57.25;;;8.50;84.40;;;;;;5055074;28;20088;-82
2021/03/25 06:34:58;;;;;;;96.47;56.35;;;8.60;85.10;;;;;;5054937;28;20021;-82
2021/03/25 06:37:41;;;;;;;100.55;59.70;;;8.60;84.40;;;;;;5054749;28;20446;-83
2021/03/25 06:40:46;;;;;;;98.55;61.00;;;8.70;84.30;;;;;;5054600;28;20024;-82
2021/03/25 06:43:15;;;;;;;103.65;58.10;;;8.80;84.30;;;;;;5059242;28;20036;-83
2021/03/25 06:45:50;;;;;;;102.28;60.20;;;8.80;84.00;;;;;;5063832;28;20089;-82
2021/03/25 06:48:23;;;;;;;91.60;54.85;;;8.90;84.00;;;;;;5065219;28;20017;-82
2021/03/25 06:50:52;;;;;;;96.38;56.42;;;9.00;83.80;;;;;;5061576;28;20009;-82
2021/03/25 06:53:22;;;;;;;99.17;57.70;;;9.00;83.50;;;;;;5063035;28;20016;-83
2021/03/25 06:55:50;;;;;;;104.15;59.63;;;9.10;83.60;;;;;;5064752;28;20295;-82
2021/03/25 06:58:23;;;;;;;101.30;58.08;;;9.10;83.30;;;;;;5061394;28;20403;-82
2021/03/25 07:00:59;;;;;;;103.15;62.65;;;9.10;83.50;;;;;;5070428;28;20055;-82
2021/03/25 07:03:26;;;;;;;102.85;59.78;;;9.00;83.70;;;;;;5055150;28;20020;-82
2021/03/25 07:05:53;;;;;;;98.88;58.50;;;9.00;83.80;;;;;;5054333;28;20106;-82
2021/03/25 07:08:25;;;;;;;103.38;57.00;;;9.00;84.00;;;;;;5054444;28;20020;-84
2021/03/25 07:10:58;;;;;;;97.40;59.00;;;9.00;84.00;;;;;;5054543;28;20090;-82
2021/03/25 07:13:48;;;;;;;93.88;58.25;;;9.00;84.20;;;;;;5055384;28;20047;-82
2021/03/25 07:16:14;;;;;;;103.82;59.50;;;9.10;84.20;;;;;;5053919;28;20028;-82
2021/03/25 07:19:01;;;;;;;102.63;60.17;;;9.10;84.50;;;;;;5054184;28;20055;-82
2021/03/25 07:21:37;;;;;;;105.75;61.05;;;9.20;84.20;;;;;;5055054;28;20021;-81
2021/03/25 07:24:25;;;;;;;99.13;61.45;;;9.30;84.10;;;;;;5056838;28;20025;-81
2021/03/25 07:27:05;;;;;;;98.25;59.65;;;9.40;83.50;;;;;;5055866;28;20096;-82
2021/03/25 07:29:34;;;;;;;98.43;60.95;;;9.50;83.20;;;;;;5054084;28;20047;-83
2021/03/25 07:32:16;;;;;;;100.93;58.50;;;9.70;82.20;;;;;;5054280;28;20009;-84
2021/03/25 07:34:49;;;;;;;96.78;56.97;;;9.90;81.70;;;;;;5053912;28;20044;-83
2021/03/25 07:37:31;;;;;;;90.43;55.25;;;10.10;80.80;;;;;;5053704;28;20013;-83
2021/03/25 07:40:01;;;;;;;93.20;57.80;;;10.10;80.20;;;;;;5055169;28;20108;-83
2021/03/25 07:42:38;;;;;;;83.60;55.77;;;10.30;79.70;;;;;;5053837;28;20036;-83
2021/03/25 07:45:27;;;;;;;90.53;54.33;;;10.40;79.60;;;;;;5053999;28;20021;-83
2021/03/25 07:47:54;;;;;;;87.53;57.78;;;10.50;78.70;;;;;;5053777;28;20059;-83
2021/03/25 07:50:36;;;;;;;89.60;52.55;;;10.50;78.50;;;;;;5053959;28;20017;-83
2021/03/25 07:53:30;;;;;;;82.03;52.88;;;10.60;78.40;;;;;;5054946;28;20457;-83
2021/03/25 07:56:18;;;;;;;95.72;58.30;;;10.70;77.90;;;;;;5053145;28;20065;-81
2021/03/25 07:58:45;;;;;;;96.68;57.60;;;10.70;78.30;;;;;;5057799;28;20013;-82
2021/03/25 08:01:20;;;;;;;86.95;55.30;;;10.80;77.10;;;;;;5069952;28;20027;-82
2021/03/25 08:03:50;;;;;;;90.35;55.28;;;10.90;77.40;;;;;;5072867;28;20020;-82
2021/03/25 08:06:25;;;;;;;90.57;55.40;;;11.10;76.60;;;;;;5076189;28;20044;-80
2021/03/25 08:09:26;;;;;;;80.28;51.35;;;11.20;76.30;;;;;;5094484;28;20023;-80
2021/03/25 08:12:02;;;;;;;84.93;51.92;;;11.40;75.60;;;;;;5082788;28;20046;-83
2021/03/25 08:14:33;;;;;;;79.40;49.35;;;11.30;75.50;;;;;;5072976;28;20543;-83
2021/03/25 08:17:10;;;;;;;86.38;51.22;;;11.30;75.70;;;;;;5073328;28;20024;-83
2021/03/25 08:19:39;;;;;;;95.70;59.53;;;11.40;75.90;;;;;;5072875;28;20025;-82
2021/03/25 08:22:07;;;;;;;94.53;56.00;;;11.50;75.50;;;;;;5088083;28;20019;-83
2021/03/25 08:24:58;;;;;;;83.43;52.10;;;11.60;75.00;;;;;;5093098;28;20019;-82
2021/03/25 08:27:39;;;;;;;85.00;52.33;;;11.80;75.30;;;;;;5083741;28;20167;-82
2021/03/25 08:30:15;;;;;;;83.18;51.35;;;12.10;74.10;;;;;;5087931;28;20111;-82
2021/03/25 08:33:02;;;;;;;88.57;50.72;;;12.30;73.10;;;;;;5059902;28;20440;-82
2021/03/25 08:35:37;;;;;;;77.82;48.58;;;12.50;73.40;;;;;;5082157;28;20013;-82
2021/03/25 08:38:24;;;;;;;78.10;50.65;;;12.70;71.70;;;;;;5087347;28;20020;-81
2021/03/25 08:40:59;;;;;;;81.40;50.58;;;12.70;71.50;;;;;;5062092;28;20011;-82
2021/03/25 08:44:05;;;;;;;77.53;49.58;;;12.90;71.60;;;;;;5068144;28;20017;-81
2021/03/25 08:46:50;;;;;;;73.30;43.97;;;12.70;71.90;;;;;;5083583;28;20032;-81
2021/03/25 08:49:32;;;;;;;81.47;49.40;;;12.80;72.20;;;;;;5087000;28;20027;-80
2021/03/25 08:52:01;;;;;;;78.30;45.95;;;13.10;70.90;;;;;;5083953;28;20020;-81
2021/03/25 08:54:43;;;;;;;74.93;47.10;;;13.20;70.80;;;;;;5071644;28;20025;-82
2021/03/25 08:57:23;;;;;;;67.93;46.17;;;13.30;70.50;;;;;;5072014;28;20475;-81
2021/03/25 09:00:22;;;;;;;68.80;43.28;;;13.60;70.50;;;;;;5072203;28;20082;-80
2021/03/25 09:02:52;;;;;;;57.58;35.60;;;13.90;68.90;;;;;;5075733;28;20032;-81
2021/03/25 09:05:26;;;;;;;58.92;37.70;;;14.00;68.80;;;;;;5076975;28;20019;-80
2021/03/25 09:07:54;;;;;;;59.17;34.88;;;14.10;68.90;;;;;;5072631;28;20036;-80
2021/03/25 09:10:50;;;;;;;53.38;34.85;;;14.10;68.90;;;;;;5071696;28;20017;-79
2021/03/25 09:13:23;;;;;;;64.97;40.13;;;14.20;68.90;;;;;;5072064;28;20013;-81
2021/03/25 09:15:56;;;;;;;58.40;38.08;;;14.30;68.30;;;;;;5071762;28;20107;-81
2021/03/25 09:18:29;;;;;;;50.13;31.15;;;14.60;68.40;;;;;;5071635;28;20020;-81
2021/03/25 09:20:57;;;;;;;55.00;36.15;;;14.70;67.40;;;;;;5071506;28;20108;-77
2021/03/25 09:23:29;;;;;;;67.55;41.47;;;14.80;67.40;;;;;;5071164;28;20028;-76
2021/03/25 09:25:57;;;;;;;62.67;40.38;;;15.00;66.10;;;;;;5072610;28;20032;-77
2021/03/25 09:28:22;;;;;;;61.03;40.60;;;15.00;64.80;;;;;;5071068;28;20020;-78
2021/03/25 09:31:06;;;;;;;67.25;41.08;;;15.10;65.10;;;;;;5071192;28;20457;-77
2021/03/25 09:33:44;;;;;;;48.83;31.13;;;15.20;65.40;;;;;;5062371;28;20049;-77
2021/03/25 09:36:19;;;;;;;60.95;39.03;;;15.40;65.80;;;;;;5065057;28;20035;-77
2021/03/25 09:38:57;;;;;;;61.55;38.85;;;15.50;62.80;;;;;;5070932;28;20025;-77
2021/03/25 09:41:25;;;;;;;54.05;35.47;;;15.50;64.40;;;;;;5070750;28;20048;-77
2021/03/25 09:44:09;;;;;;;51.88;36.65;;;15.60;63.60;;;;;;5059310;28;20496;-78
2021/03/25 09:46:53;;;;;;;53.25;35.20;;;15.90;61.20;;;;;;5051904;28;20104;-78
2021/03/25 09:49:33;;;;;;;47.20;31.42;;;15.80;61.30;;;;;;5051901;28;20025;-77
2021/03/25 09:52:12;;;;;;;51.40;34.30;;;15.80;62.60;;;;;;5050870;28;20365;-77
2021/03/25 09:54:43;;;;;;;54.10;35.38;;;15.50;62.40;;;;;;5050490;28;20021;-77
2021/03/25 10:00:11;;;;;;;49.75;35.25;;;15.30;63.60;;;;;;5052289;28;20058;-77
2021/03/25 10:02:48;;;;;;;55.88;35.70;;;15.00;65.00;;;;;;5051630;28;20377;-76
2021/03/25 10:05:30;;;;;;;55.17;34.53;;;14.90;65.00;;;;;;5052121;28;20021;-78
2021/03/25 10:08:08;;;;;;;55.17;34.85;;;14.80;64.90;;;;;;5051695;28;20124;-76
2021/03/25 10:10:41;;;;;;;52.15;36.40;;;14.70;65.00;;;;;;5050442;28;20025;-77
2021/03/25 10:13:13;;;;;;;52.03;35.53;;;14.70;65.40;;;;;;5050375;28;20023;-77
2021/03/25 10:15:50;;;;;;;55.38;35.67;;;14.70;65.30;;;;;;5050190;28;20412;-76
2021/03/25 10:18:16;;;;;;;50.63;32.70;;;14.70;66.10;;;;;;5050236;28;20091;-77
2021/03/25 10:21:00;;;;;;;44.90;32.10;;;14.90;66.20;;;;;;5050787;28;20473;-78
2021/03/25 10:23:39;;;;;;;45.72;29.08;;;15.20;64.50;;;;;;5050574;28;20025;-76
2021/03/25 10:26:05;;;;;;;50.60;30.50;;;15.40;63.30;;;;;;5050547;28;20021;-75
2021/03/25 10:28:43;;;;;;;48.10;31.25;;;15.50;62.50;;;;;;5050404;28;20075;-78
2021/03/25 10:31:14;;;;;;;50.45;33.45;;;15.30;63.20;;;;;;5051598;28;20045;-78
2021/03/25 10:33:40;;;;;;;52.38;33.15;;;15.10;63.70;;;;;;5051693;28;20024;-78
2021/03/25 10:36:16;;;;;;;49.45;32.25;;;15.00;64.40;;;;;;5050476;28;20025;-76
2021/03/25 10:38:58;;;;;;;48.70;33.42;;;15.00;64.20;;;;;;5033694;28;20029;-77
2021/03/25 10:41:31;;;;;;;49.30;30.58;;;14.90;64.50;;;;;;5050105;28;20028;-79
2021/03/25 10:43:57;;;;;;;43.47;28.70;;;14.90;64.50;;;;;;5050205;28;20029;-79
2021/03/25 10:46:31;;;;;;;43.38;28.85;;;14.90;63.80;;;;;;5050273;28;20546;-76
2021/03/25 10:49:02;;;;;;;51.08;30.52;;;14.90;64.10;;;;;;5050600;28;20346;-76
2021/03/25 10:51:31;;;;;;;45.40;30.17;;;14.90;64.50;;;;;;5050679;28;20028;-76
2021/03/25 10:54:01;;;;;;;40.33;29.00;;;15.10;64.20;;;;;;5050214;28;20047;-77
2021/03/25 10:56:37;;;;;;;44.22;28.70;;;15.30;64.20;;;;;;5050042;28;20020;-76
2021/03/25 10:59:14;;;;;;;43.08;27.63;;;15.40;63.80;;;;;;5051635;28;20086;-76
2021/03/25 11:01:54;;;;;;;45.28;30.15;;;15.90;63.40;;;;;;5051987;28;20020;-77
2021/03/25 11:04:30;;;;;;;42.47;29.25;;;16.20;61.30;;;;;;5049951;28;20469;-76
2021/03/25 11:07:08;;;;;;;42.30;26.42;;;16.30;62.00;;;;;;5050119;28;20052;-76
2021/03/25 11:09:33;;;;;;;47.75;31.73;;;16.20;62.20;;;;;;5052911;28;20480;-76
2021/03/25 11:12:12;;;;;;;37.78;24.77;;;16.10;61.30;;;;;;5054895;28;20021;-76
2021/03/25 11:14:44;;;;;;;40.95;29.65;;;15.90;63.90;;;;;;5053637;28;20403;-76
2021/03/25 11:17:24;;;;;;;49.50;33.03;;;15.60;64.20;;;;;;5053892;28;20023;-76
2021/03/25 11:19:55;;;;;;;48.67;30.70;;;15.30;64.70;;;;;;5054887;28;20346;-76
2021/03/25 11:22:21;;;;;;;40.13;28.15;;;15.10;65.50;;;;;;5053568;28;20043;-76
2021/03/25 11:24:49;;;;;;;44.60;30.65;;;14.90;65.90;;;;;;5053638;28;20074;-76
2021/03/25 11:27:19;;;;;;;46.35;30.08;;;14.70;66.90;;;;;;5053389;28;20033;-76
2021/03/25 11:29:46;;;;;;;40.22;28.40;;;14.60;67.60;;;;;;5054984;28;20024;-75
2021/03/25 11:32:14;;;;;;;42.05;27.48;;;14.50;67.90;;;;;;5053454;28;20017;-76
2021/03/25 11:34:42;;;;;;;42.88;29.45;;;14.50;70.00;;;;;;5054845;28;20020;-76
2021/03/25 11:37:36;;;;;;;48.67;30.60;;;14.30;69.20;;;;;;5053604;28;20025;-76
2021/03/25 11:40:13;;;;;;;39.60;26.92;;;14.20;69.90;;;;;;5052798;28;20025;-76
2021/03/25 11:42:44;;;;;;;40.22;27.25;;;14.10;70.30;;;;;;5052891;28;20013;-76
2021/03/25 11:45:39;;;;;;;42.33;30.75;;;14.10;71.30;;;;;;5054446;28;20017;-76
2021/03/25 11:48:20;;;;;;;38.65;27.27;;;13.90;71.80;;;;;;5054659;28;20480;-76
2021/03/25 11:50:47;;;;;;;28.45;20.90;;;13.90;73.00;;;;;;5054822;28;20104;-76
2021/03/25 11:53:33;;;;;;;28.83;21.75;;;13.80;73.20;;;;;;5053703;28;20020;-75
2021/03/25 11:55:59;;;;;;;36.00;23.08;;;13.70;73.10;;;;;;5053241;28;20020;-76
2021/03/25 11:58:25;;;;;;;30.20;21.30;;;13.60;72.80;;;;;;5052845;28;20067;-75
2021/03/25 12:01:24;;;;;;;27.30;19.58;;;13.70;73.90;;;;;;5054247;28;20017;-76
2021/03/25 12:04:05;;;;;;;26.55;19.55;;;13.70;73.70;;;;;;5050872;28;20033;-76
2021/03/25 12:06:33;;;;;;;26.73;19.10;;;13.60;73.40;;;;;;5053735;28;20059;-75
2021/03/25 12:09:17;;;;;;;28.70;19.95;;;13.50;73.30;;;;;;5054127;28;20020;-76
2021/03/25 12:11:45;;;;;;;35.53;20.73;;;13.40;73.30;;;;;;5054218;28;20111;-76
2021/03/25 12:14:12;;;;;;;30.13;20.63;;;13.30;73.50;;;;;;5052770;28;20492;-76
2021/03/25 12:16:38;;;;;;;29.38;19.42;;;13.40;73.50;;;;;;5052465;28;20024;-76
2021/03/25 12:19:05;;;;;;;27.55;18.83;;;13.60;73.80;;;;;;5052735;28;20417;-76
2021/03/25 12:21:32;;;;;;;27.13;18.65;;;13.70;72.90;;;;;;5053446;28;20028;-75
2021/03/25 12:24:00;;;;;;;27.35;18.85;;;13.90;72.20;;;;;;5052636;28;20479;-76
2021/03/25 12:26:27;;;;;;;23.33;14.90;;;13.90;71.30;;;;;;5052129;28;20039;-75
2021/03/25 12:28:53;;;;;;;26.20;17.58;;;13.70;72.30;;;;;;5053746;28;20025;-76
2021/03/25 12:31:27;;;;;;;26.27;18.25;;;13.50;72.10;;;;;;5052074;28;20025;-75
2021/03/25 12:33:53;;;;;;;30.52;18.05;;;13.30;73.00;;;;;;5053356;28;20104;-76
2021/03/25 12:36:20;;;;;;;27.08;19.27;;;13.20;73.30;;;;;;5052181;28;20052;-76
2021/03/25 12:38:46;;;;;;;29.35;19.85;;;13.00;74.10;;;;;;5052315;28;20021;-76
2021/03/25 12:41:34;;;;;;;27.58;19.45;;;12.90;75.20;;;;;;5052320;28;20465;-76
2021/03/25 12:44:00;;;;;;;24.08;16.67;;;12.80;76.20;;;;;;5053653;28;20016;-76
2021/03/25 12:46:27;;;;;;;22.60;14.73;;;12.70;77.30;;;;;;5053207;28;20021;-75
2021/03/25 12:48:52;;;;;;;22.38;15.18;;;12.50;77.60;;;;;;5052145;28;20071;-75
2021/03/25 12:51:18;;;;;;;22.05;14.60;;;12.30;78.40;;;;;;5051707;28;20017;-76
2021/03/25 12:53:45;;;;;;;28.95;17.40;;;12.20;79.40;;;;;;5051919;28;20025;-76
2021/03/25 12:56:23;;;;;;;26.70;17.33;;;12.10;79.80;;;;;;5051966;28;20017;-76
2021/03/25 12:58:49;;;;;;;26.17;18.23;;;12.00;80.50;;;;;;5053282;28;20251;-76
2021/03/25 13:01:26;;;;;;;25.60;14.98;;;12.00;80.80;;;;;;5051981;28;20259;-77
2021/03/25 13:03:53;;;;;;;24.60;17.13;;;11.90;81.20;;;;;;5052482;28;20021;-80
2021/03/25 13:06:19;;;;;;;24.90;17.10;;;11.80;80.90;;;;;;5051627;28;20124;-77
2021/03/25 13:08:45;;;;;;;27.77;17.13;;;11.70;81.80;;;;;;5051868;28;20013;-77
2021/03/25 13:11:14;;;;;;;29.58;17.33;;;11.60;82.60;;;;;;5051558;28;20021;-77
2021/03/25 13:13:40;;;;;;;30.75;18.92;;;11.60;83.40;;;;;;5051393;28;20093;-78